sensor_id;sensor_type;location;lat;lon;timestamp;temperature;humidity
3678;DHT22;1855;50.934;6.958;2023-03-21T00:01:11;10.60;86.20
3678;DHT22;1855;50.934;6.958;2023-03-21T00:03:38;10.60;86.70
3678;DHT22;1855;50.934;6.958;2023-03-21T00:06:06;10.60;87.20
3678;DHT22;1855;50.934;6.958;2023-03-21T00:08:33;10.60;87.50
3678;DHT22;1855;50.934;6.958;2023-03-21T00:11:02;10.60;87.80
3678;DHT22;1855;50.934;6.958;2023-03-21T00:13:31;10.60;87.80
3678;DHT22;1855;50.934;6.958;2023-03-21T00:16:03;10.60;88.00
3678;DHT22;1855;50.934;6.958;2023-03-21T00:18:30;10.60;88.50
3678;DHT22;1855;50.934;6.958;2023-03-21T00:20:58;10.60;88.80
3678;DHT22;1855;50.934;6.958;2023-03-21T00:23:25;10.50;89.30
3678;DHT22;1855;50.934;6.958;2023-03-21T00:25:52;10.50;90.30
3678;DHT22;1855;50.934;6.958;2023-03-21T00:28:19;10.50;90.40
3678;DHT22;1855;50.934;6.958;2023-03-21T00:30:48;10.50;90.30
3678;DHT22;1855;50.934;6.958;2023-03-21T00:33:15;10.50;90.40
3678;DHT22;1855;50.934;6.958;2023-03-21T00:35:45;10.50;90.30
3678;DHT22;1855;50.934;6.958;2023-03-21T00:38:13;10.50;90.30
3678;DHT22;1855;50.934;6.958;2023-03-21T00:40:40;10.50;90.10
3678;DHT22;1855;50.934;6.958;2023-03-21T00:43:07;10.40;90.60
3678;DHT22;1855;50.934;6.958;2023-03-21T00:45:34;10.40;90.30
3678;DHT22;1855;50.934;6.958;2023-03-21T00:48:03;10.40;90.30
3678;DHT22;1855;50.934;6.958;2023-03-21T00:50:30;10.40;90.30
3678;DHT22;1855;50.934;6.958;2023-03-21T00:52:58;10.40;90.30
3678;DHT22;1855;50.934;6.958;2023-03-21T00:55:25;10.40;90.30
3678;DHT22;1855;50.934;6.958;2023-03-21T00:57:52;10.40;90.50
3678;DHT22;1855;50.934;6.958;2023-03-21T01:00:19;10.40;90.40
3678;DHT22;1855;50.934;6.958;2023-03-21T01:02:47;10.40;90.60
3678;DHT22;1855;50.934;6.958;2023-03-21T01:05:23;10.40;90.70
3678;DHT22;1855;50.934;6.958;2023-03-21T01:08:04;10.40;90.50
3678;DHT22;1855;50.934;6.958;2023-03-21T01:10:32;10.40;90.50
3678;DHT22;1855;50.934;6.958;2023-03-21T01:12:59;10.40;91.00
3678;DHT22;1855;50.934;6.958;2023-03-21T01:15:25;10.40;91.00
3678;DHT22;1855;50.934;6.958;2023-03-21T01:17:52;10.30;90.90
3678;DHT22;1855;50.934;6.958;2023-03-21T01:20:19;10.40;91.00
3678;DHT22;1855;50.934;6.958;2023-03-21T01:22:47;10.30;91.20
3678;DHT22;1855;50.934;6.958;2023-03-21T01:25:14;10.40;90.90
3678;DHT22;1855;50.934;6.958;2023-03-21T01:27:40;10.30;91.10
3678;DHT22;1855;50.934;6.958;2023-03-21T01:30:09;10.40;91.00
3678;DHT22;1855;50.934;6.958;2023-03-21T01:32:36;10.40;91.10
3678;DHT22;1855;50.934;6.958;2023-03-21T01:35:03;10.40;91.20
3678;DHT22;1855;50.934;6.958;2023-03-21T01:37:30;10.40;91.30
3678;DHT22;1855;50.934;6.958;2023-03-21T01:39:58;10.30;91.30
3678;DHT22;1855;50.934;6.958;2023-03-21T01:42:25;10.40;91.50
3678;DHT22;1855;50.934;6.958;2023-03-21T01:44:53;10.30;91.50
3678;DHT22;1855;50.934;6.958;2023-03-21T01:47:21;10.30;91.70
3678;DHT22;1855;50.934;6.958;2023-03-21T01:49:49;10.30;92.00
3678;DHT22;1855;50.934;6.958;2023-03-21T01:52:20;10.30;92.00
3678;DHT22;1855;50.934;6.958;2023-03-21T01:54:49;10.30;92.20
3678;DHT22;1855;50.934;6.958;2023-03-21T01:57:21;10.30;92.40
3678;DHT22;1855;50.934;6.958;2023-03-21T01:59:49;10.30;92.00
3678;DHT22;1855;50.934;6.958;2023-03-21T02:02:22;10.30;92.00
3678;DHT22;1855;50.934;6.958;2023-03-21T02:04:51;10.30;91.50
3678;DHT22;1855;50.934;6.958;2023-03-21T02:07:24;10.30;91.30
3678;DHT22;1855;50.934;6.958;2023-03-21T02:09:53;10.30;91.20
3678;DHT22;1855;50.934;6.958;2023-03-21T02:12:22;10.30;91.20
3678;DHT22;1855;50.934;6.958;2023-03-21T02:14:50;10.30;91.30
3678;DHT22;1855;50.934;6.958;2023-03-21T02:17:21;10.40;91.40
3678;DHT22;1855;50.934;6.958;2023-03-21T02:26:33;10.30;92.40
3678;DHT22;1855;50.934;6.958;2023-03-21T02:29:18;10.30;93.00
3678;DHT22;1855;50.934;6.958;2023-03-21T02:31:53;10.30;93.00
3678;DHT22;1855;50.934;6.958;2023-03-21T02:37:36;10.30;93.00
3678;DHT22;1855;50.934;6.958;2023-03-21T02:40:09;10.20;92.70
3678;DHT22;1855;50.934;6.958;2023-03-21T02:42:47;10.20;92.50
3678;DHT22;1855;50.934;6.958;2023-03-21T02:45:20;10.20;92.60
3678;DHT22;1855;50.934;6.958;2023-03-21T02:47:49;10.20;92.60
3678;DHT22;1855;50.934;6.958;2023-03-21T02:50:20;10.20;92.60
3678;DHT22;1855;50.934;6.958;2023-03-21T02:52:53;10.20;92.70
3678;DHT22;1855;50.934;6.958;2023-03-21T02:55:23;10.20;92.80
3678;DHT22;1855;50.934;6.958;2023-03-21T02:57:52;10.20;92.80
3678;DHT22;1855;50.934;6.958;2023-03-21T03:00:22;10.20;92.80
3678;DHT22;1855;50.934;6.958;2023-03-21T03:02:49;10.10;92.90
3678;DHT22;1855;50.934;6.958;2023-03-21T03:05:18;10.10;93.10
3678;DHT22;1855;50.934;6.958;2023-03-21T03:07:59;10.10;93.10
3678;DHT22;1855;50.934;6.958;2023-03-21T03:10:41;10.20;93.40
3678;DHT22;1855;50.934;6.958;2023-03-21T03:13:18;10.10;93.30
3678;DHT22;1855;50.934;6.958;2023-03-21T03:15:53;10.10;93.40
3678;DHT22;1855;50.934;6.958;2023-03-21T03:18:29;10.20;93.50
3678;DHT22;1855;50.934;6.958;2023-03-21T03:21:06;10.20;93.30
3678;DHT22;1855;50.934;6.958;2023-03-21T03:23:41;10.10;93.30
3678;DHT22;1855;50.934;6.958;2023-03-21T03:26:12;10.10;93.40
3678;DHT22;1855;50.934;6.958;2023-03-21T03:28:44;10.10;93.60
3678;DHT22;1855;50.934;6.958;2023-03-21T03:31:13;10.10;93.80
3678;DHT22;1855;50.934;6.958;2023-03-21T03:33:45;10.10;93.80
3678;DHT22;1855;50.934;6.958;2023-03-21T03:36:13;10.00;93.80
3678;DHT22;1855;50.934;6.958;2023-03-21T03:38:45;10.00;93.90
3678;DHT22;1855;50.934;6.958;2023-03-21T03:41:18;9.90;94.10
3678;DHT22;1855;50.934;6.958;2023-03-21T03:43:50;9.80;94.50
3678;DHT22;1855;50.934;6.958;2023-03-21T03:46:25;9.80;94.60
3678;DHT22;1855;50.934;6.958;2023-03-21T03:48:54;9.80;94.50
3678;DHT22;1855;50.934;6.958;2023-03-21T03:51:24;9.80;94.80
3678;DHT22;1855;50.934;6.958;2023-03-21T03:53:56;9.80;94.90
3678;DHT22;1855;50.934;6.958;2023-03-21T03:56:26;9.80;94.80
3678;DHT22;1855;50.934;6.958;2023-03-21T03:58:53;9.80;95.10
3678;DHT22;1855;50.934;6.958;2023-03-21T04:01:20;9.80;94.70
3678;DHT22;1855;50.934;6.958;2023-03-21T04:03:47;9.80;94.60
3678;DHT22;1855;50.934;6.958;2023-03-21T04:06:14;9.90;94.50
3678;DHT22;1855;50.934;6.958;2023-03-21T04:08:41;9.90;94.50
3678;DHT22;1855;50.934;6.958;2023-03-21T04:11:12;9.90;94.60
3678;DHT22;1855;50.934;6.958;2023-03-21T04:13:39;9.90;94.60
3678;DHT22;1855;50.934;6.958;2023-03-21T04:16:07;9.90;94.60
3678;DHT22;1855;50.934;6.958;2023-03-21T04:18:34;9.90;94.60
3678;DHT22;1855;50.934;6.958;2023-03-21T04:21:07;9.90;94.50
3678;DHT22;1855;50.934;6.958;2023-03-21T04:23:33;9.90;94.50
3678;DHT22;1855;50.934;6.958;2023-03-21T04:26:01;10.00;94.50
3678;DHT22;1855;50.934;6.958;2023-03-21T04:28:29;10.00;94.40
3678;DHT22;1855;50.934;6.958;2023-03-21T04:30:56;9.90;94.40
3678;DHT22;1855;50.934;6.958;2023-03-21T04:33:23;9.90;94.50
3678;DHT22;1855;50.934;6.958;2023-03-21T04:35:50;10.00;94.50
3678;DHT22;1855;50.934;6.958;2023-03-21T04:38:20;9.90;94.50
3678;DHT22;1855;50.934;6.958;2023-03-21T04:40:47;10.00;94.60
3678;DHT22;1855;50.934;6.958;2023-03-21T04:43:14;9.90;94.70
3678;DHT22;1855;50.934;6.958;2023-03-21T04:45:42;9.90;95.10
3678;DHT22;1855;50.934;6.958;2023-03-21T04:48:09;9.90;94.90
3678;DHT22;1855;50.934;6.958;2023-03-21T04:50:35;9.90;94.90
3678;DHT22;1855;50.934;6.958;2023-03-21T04:53:02;9.90;94.80
3678;DHT22;1855;50.934;6.958;2023-03-21T04:55:29;9.90;94.80
3678;DHT22;1855;50.934;6.958;2023-03-21T04:57:56;9.90;94.80
3678;DHT22;1855;50.934;6.958;2023-03-21T05:00:24;10.00;94.70
3678;DHT22;1855;50.934;6.958;2023-03-21T05:02:52;10.00;94.60
3678;DHT22;1855;50.934;6.958;2023-03-21T05:05:19;10.00;94.70
3678;DHT22;1855;50.934;6.958;2023-03-21T05:07:46;10.00;95.20
3678;DHT22;1855;50.934;6.958;2023-03-21T05:10:13;10.00;94.80
3678;DHT22;1855;50.934;6.958;2023-03-21T05:12:40;10.00;94.70
3678;DHT22;1855;50.934;6.958;2023-03-21T05:15:08;10.00;94.60
3678;DHT22;1855;50.934;6.958;2023-03-21T05:17:35;10.00;94.60
3678;DHT22;1855;50.934;6.958;2023-03-21T05:20:04;10.00;94.60
3678;DHT22;1855;50.934;6.958;2023-03-21T05:22:34;10.10;94.50
3678;DHT22;1855;50.934;6.958;2023-03-21T05:25:06;10.10;94.80
3678;DHT22;1855;50.934;6.958;2023-03-21T05:27:33;10.00;94.80
3678;DHT22;1855;50.934;6.958;2023-03-21T05:30:05;10.10;94.90
3678;DHT22;1855;50.934;6.958;2023-03-21T05:32:33;10.10;94.90
3678;DHT22;1855;50.934;6.958;2023-03-21T05:35:00;10.10;95.00
3678;DHT22;1855;50.934;6.958;2023-03-21T05:37:28;10.10;94.80
3678;DHT22;1855;50.934;6.958;2023-03-21T05:39:55;10.10;94.70
3678;DHT22;1855;50.934;6.958;2023-03-21T05:42:22;10.10;94.70
3678;DHT22;1855;50.934;6.958;2023-03-21T05:44:49;10.10;94.70
3678;DHT22;1855;50.934;6.958;2023-03-21T05:47:16;10.10;94.80
3678;DHT22;1855;50.934;6.958;2023-03-21T05:49:43;10.10;95.10
3678;DHT22;1855;50.934;6.958;2023-03-21T05:52:11;10.10;95.10
3678;DHT22;1855;50.934;6.958;2023-03-21T05:54:39;10.10;95.30
3678;DHT22;1855;50.934;6.958;2023-03-21T05:57:07;10.10;95.50
3678;DHT22;1855;50.934;6.958;2023-03-21T05:59:34;10.10;95.60
3678;DHT22;1855;50.934;6.958;2023-03-21T06:02:00;10.10;95.70
3678;DHT22;1855;50.934;6.958;2023-03-21T06:04:27;10.10;95.80
3678;DHT22;1855;50.934;6.958;2023-03-21T06:06:54;10.20;96.10
3678;DHT22;1855;50.934;6.958;2023-03-21T06:09:22;10.20;96.20
3678;DHT22;1855;50.934;6.958;2023-03-21T06:11:52;10.10;96.10
3678;DHT22;1855;50.934;6.958;2023-03-21T06:14:21;10.20;96.10
3678;DHT22;1855;50.934;6.958;2023-03-21T06:16:48;10.20;96.40
3678;DHT22;1855;50.934;6.958;2023-03-21T06:19:15;10.20;96.60
3678;DHT22;1855;50.934;6.958;2023-03-21T06:21:42;10.20;96.00
3678;DHT22;1855;50.934;6.958;2023-03-21T06:24:08;10.20;95.90
3678;DHT22;1855;50.934;6.958;2023-03-21T06:26:35;10.20;95.80
3678;DHT22;1855;50.934;6.958;2023-03-21T06:31:32;10.20;94.60
3678;DHT22;1855;50.934;6.958;2023-03-21T06:33:58;10.20;94.50
3678;DHT22;1855;50.934;6.958;2023-03-21T06:36:25;10.20;94.30
3678;DHT22;1855;50.934;6.958;2023-03-21T06:38:52;10.20;94.30
3678;DHT22;1855;50.934;6.958;2023-03-21T06:41:19;10.20;94.50
3678;DHT22;1855;50.934;6.958;2023-03-21T06:43:45;10.30;94.40
3678;DHT22;1855;50.934;6.958;2023-03-21T06:46:13;10.30;94.30
3678;DHT22;1855;50.934;6.958;2023-03-21T06:48:41;10.40;94.20
3678;DHT22;1855;50.934;6.958;2023-03-21T06:51:10;10.40;94.30
3678;DHT22;1855;50.934;6.958;2023-03-21T06:53:37;10.40;94.00
3678;DHT22;1855;50.934;6.958;2023-03-21T06:56:04;10.50;93.80
3678;DHT22;1855;50.934;6.958;2023-03-21T06:58:31;10.40;93.80
3678;DHT22;1855;50.934;6.958;2023-03-21T07:00:58;10.40;94.20
3678;DHT22;1855;50.934;6.958;2023-03-21T07:03:25;10.40;94.50
3678;DHT22;1855;50.934;6.958;2023-03-21T07:05:53;10.40;94.80
3678;DHT22;1855;50.934;6.958;2023-03-21T07:08:20;10.40;95.10
3678;DHT22;1855;50.934;6.958;2023-03-21T07:10:47;10.50;95.40
3678;DHT22;1855;50.934;6.958;2023-03-21T07:13:14;10.40;95.90
3678;DHT22;1855;50.934;6.958;2023-03-21T07:15:41;10.40;96.70
3678;DHT22;1855;50.934;6.958;2023-03-21T07:18:09;10.40;97.00
3678;DHT22;1855;50.934;6.958;2023-03-21T07:20:36;10.30;97.80
3678;DHT22;1855;50.934;6.958;2023-03-21T07:23:05;10.30;98.70
3678;DHT22;1855;50.934;6.958;2023-03-21T07:25:32;10.20;99.40
3678;DHT22;1855;50.934;6.958;2023-03-21T07:27:59;10.10;99.90
3678;DHT22;1855;50.934;6.958;2023-03-21T07:30:26;10.00;99.90
3678;DHT22;1855;50.934;6.958;2023-03-21T07:32:53;9.90;99.90
3678;DHT22;1855;50.934;6.958;2023-03-21T07:35:20;9.90;99.90
3678;DHT22;1855;50.934;6.958;2023-03-21T07:37:46;9.90;99.90
3678;DHT22;1855;50.934;6.958;2023-03-21T07:40:16;9.80;99.90
3678;DHT22;1855;50.934;6.958;2023-03-21T07:42:44;9.70;99.90
3678;DHT22;1855;50.934;6.958;2023-03-21T07:45:13;9.70;99.90
3678;DHT22;1855;50.934;6.958;2023-03-21T07:47:46;9.70;99.90
3678;DHT22;1855;50.934;6.958;2023-03-21T07:50:13;9.60;99.90
3678;DHT22;1855;50.934;6.958;2023-03-21T07:52:40;9.50;99.90
3678;DHT22;1855;50.934;6.958;2023-03-21T07:55:08;9.50;99.90
3678;DHT22;1855;50.934;6.958;2023-03-21T07:57:36;9.50;99.90
3678;DHT22;1855;50.934;6.958;2023-03-21T08:00:04;9.50;99.90
3678;DHT22;1855;50.934;6.958;2023-03-21T08:02:31;9.40;99.90
3678;DHT22;1855;50.934;6.958;2023-03-21T08:04:58;9.40;99.90
3678;DHT22;1855;50.934;6.958;2023-03-21T08:07:25;9.40;99.90
3678;DHT22;1855;50.934;6.958;2023-03-21T08:09:52;9.40;99.90
3678;DHT22;1855;50.934;6.958;2023-03-21T08:12:19;9.40;99.90
3678;DHT22;1855;50.934;6.958;2023-03-21T08:14:47;9.40;99.90
3678;DHT22;1855;50.934;6.958;2023-03-21T08:17:14;9.40;99.90
3678;DHT22;1855;50.934;6.958;2023-03-21T08:19:40;9.40;99.90
3678;DHT22;1855;50.934;6.958;2023-03-21T08:22:07;9.40;99.90
3678;DHT22;1855;50.934;6.958;2023-03-21T08:24:35;9.40;99.90
3678;DHT22;1855;50.934;6.958;2023-03-21T08:27:02;9.50;99.90
3678;DHT22;1855;50.934;6.958;2023-03-21T08:29:28;9.60;99.90
3678;DHT22;1855;50.934;6.958;2023-03-21T08:31:56;9.60;99.90
3678;DHT22;1855;50.934;6.958;2023-03-21T08:34:23;9.60;99.90
3678;DHT22;1855;50.934;6.958;2023-03-21T08:36:50;9.70;99.90
3678;DHT22;1855;50.934;6.958;2023-03-21T08:39:17;9.70;99.90
3678;DHT22;1855;50.934;6.958;2023-03-21T08:41:46;9.70;99.90
3678;DHT22;1855;50.934;6.958;2023-03-21T08:44:12;9.70;99.90
3678;DHT22;1855;50.934;6.958;2023-03-21T08:46:41;9.70;99.90
3678;DHT22;1855;50.934;6.958;2023-03-21T08:49:09;9.70;99.90
3678;DHT22;1855;50.934;6.958;2023-03-21T08:51:37;9.80;99.90
3678;DHT22;1855;50.934;6.958;2023-03-21T08:54:05;9.80;99.90
3678;DHT22;1855;50.934;6.958;2023-03-21T08:56:32;9.80;99.90
3678;DHT22;1855;50.934;6.958;2023-03-21T08:58:59;9.80;99.90
3678;DHT22;1855;50.934;6.958;2023-03-21T09:01:27;9.80;99.90
3678;DHT22;1855;50.934;6.958;2023-03-21T09:03:54;9.80;99.90
3678;DHT22;1855;50.934;6.958;2023-03-21T09:06:22;9.70;99.90
3678;DHT22;1855;50.934;6.958;2023-03-21T09:08:49;9.70;99.90
3678;DHT22;1855;50.934;6.958;2023-03-21T09:11:17;9.80;99.90
3678;DHT22;1855;50.934;6.958;2023-03-21T09:13:43;9.80;99.90
3678;DHT22;1855;50.934;6.958;2023-03-21T09:16:10;9.80;99.90
3678;DHT22;1855;50.934;6.958;2023-03-21T09:18:37;9.80;99.90
3678;DHT22;1855;50.934;6.958;2023-03-21T09:21:14;9.80;99.90
3678;DHT22;1855;50.934;6.958;2023-03-21T09:23:43;9.80;99.90
3678;DHT22;1855;50.934;6.958;2023-03-21T09:26:10;9.80;99.90
3678;DHT22;1855;50.934;6.958;2023-03-21T09:28:38;9.80;99.90
3678;DHT22;1855;50.934;6.958;2023-03-21T09:31:06;9.90;99.90
3678;DHT22;1855;50.934;6.958;2023-03-21T09:33:35;10.00;99.90
3678;DHT22;1855;50.934;6.958;2023-03-21T09:36:03;10.10;99.90
3678;DHT22;1855;50.934;6.958;2023-03-21T09:38:31;10.10;99.90
3678;DHT22;1855;50.934;6.958;2023-03-21T09:41:15;10.20;99.90
3678;DHT22;1855;50.934;6.958;2023-03-21T09:43:54;10.10;99.90
3678;DHT22;1855;50.934;6.958;2023-03-21T09:46:31;10.10;99.90
3678;DHT22;1855;50.934;6.958;2023-03-21T09:49:01;10.10;99.90
3678;DHT22;1855;50.934;6.958;2023-03-21T09:51:34;10.10;99.90
3678;DHT22;1855;50.934;6.958;2023-03-21T09:54:05;10.10;99.90
3678;DHT22;1855;50.934;6.958;2023-03-21T09:56:37;10.00;99.90
3678;DHT22;1855;50.934;6.958;2023-03-21T09:59:07;10.00;99.90
3678;DHT22;1855;50.934;6.958;2023-03-21T10:01:36;10.00;99.90
3678;DHT22;1855;50.934;6.958;2023-03-21T10:04:11;10.00;99.90
3678;DHT22;1855;50.934;6.958;2023-03-21T10:06:40;10.00;99.90
3678;DHT22;1855;50.934;6.958;2023-03-21T10:09:13;10.10;99.90
3678;DHT22;1855;50.934;6.958;2023-03-21T10:11:44;10.10;99.90
3678;DHT22;1855;50.934;6.958;2023-03-21T10:14:17;10.10;99.90
3678;DHT22;1855;50.934;6.958;2023-03-21T10:16:45;10.10;99.90
3678;DHT22;1855;50.934;6.958;2023-03-21T10:19:16;10.10;99.90
3678;DHT22;1855;50.934;6.958;2023-03-21T10:21:46;10.00;99.90
3678;DHT22;1855;50.934;6.958;2023-03-21T10:24:16;10.00;99.90
3678;DHT22;1855;50.934;6.958;2023-03-21T10:26:46;9.90;99.90
3678;DHT22;1855;50.934;6.958;2023-03-21T10:29:14;10.00;99.90
3678;DHT22;1855;50.934;6.958;2023-03-21T10:31:44;10.00;99.90
3678;DHT22;1855;50.934;6.958;2023-03-21T10:34:15;10.00;99.90
3678;DHT22;1855;50.934;6.958;2023-03-21T10:36:43;10.00;99.90
3678;DHT22;1855;50.934;6.958;2023-03-21T10:39:20;10.10;99.90
3678;DHT22;1855;50.934;6.958;2023-03-21T10:41:48;10.10;99.90
3678;DHT22;1855;50.934;6.958;2023-03-21T10:44:17;10.20;99.90
3678;DHT22;1855;50.934;6.958;2023-03-21T10:46:51;10.20;99.90
3678;DHT22;1855;50.934;6.958;2023-03-21T10:49:19;10.20;99.90
3678;DHT22;1855;50.934;6.958;2023-03-21T10:51:46;10.30;99.90
3678;DHT22;1855;50.934;6.958;2023-03-21T10:54:18;10.30;99.90
3678;DHT22;1855;50.934;6.958;2023-03-21T10:56:54;10.50;99.90
3678;DHT22;1855;50.934;6.958;2023-03-21T10:59:23;10.70;99.90
3678;DHT22;1855;50.934;6.958;2023-03-21T11:01:54;10.70;99.90
3678;DHT22;1855;50.934;6.958;2023-03-21T11:04:24;10.80;99.90
3678;DHT22;1855;50.934;6.958;2023-03-21T11:06:53;10.90;99.90
3678;DHT22;1855;50.934;6.958;2023-03-21T11:09:22;10.80;99.90
3678;DHT22;1855;50.934;6.958;2023-03-21T11:11:53;10.80;99.90
3678;DHT22;1855;50.934;6.958;2023-03-21T11:14:26;10.70;99.90
3678;DHT22;1855;50.934;6.958;2023-03-21T11:16:53;10.70;99.90
3678;DHT22;1855;50.934;6.958;2023-03-21T11:19:28;10.60;99.90
3678;DHT22;1855;50.934;6.958;2023-03-21T11:21:56;10.60;99.90
3678;DHT22;1855;50.934;6.958;2023-03-21T11:24:23;10.60;99.90
3678;DHT22;1855;50.934;6.958;2023-03-21T11:26:55;10.60;99.90
3678;DHT22;1855;50.934;6.958;2023-03-21T11:29:28;10.70;99.90
3678;DHT22;1855;50.934;6.958;2023-03-21T11:31:57;10.60;99.90
3678;DHT22;1855;50.934;6.958;2023-03-21T11:34:31;10.50;99.90
3678;DHT22;1855;50.934;6.958;2023-03-21T11:37:00;10.50;99.90
3678;DHT22;1855;50.934;6.958;2023-03-21T11:39:34;10.50;99.90
3678;DHT22;1855;50.934;6.958;2023-03-21T11:42:03;10.50;99.90
3678;DHT22;1855;50.934;6.958;2023-03-21T11:44:32;10.50;99.90
3678;DHT22;1855;50.934;6.958;2023-03-21T11:47:00;10.50;99.90
3678;DHT22;1855;50.934;6.958;2023-03-21T11:49:28;10.50;99.90
3678;DHT22;1855;50.934;6.958;2023-03-21T11:52:05;10.50;99.90
3678;DHT22;1855;50.934;6.958;2023-03-21T11:54:57;10.50;99.90
3678;DHT22;1855;50.934;6.958;2023-03-21T11:57:32;10.50;99.90
3678;DHT22;1855;50.934;6.958;2023-03-21T12:00:05;10.60;99.90
3678;DHT22;1855;50.934;6.958;2023-03-21T12:03:02;10.50;99.90
3678;DHT22;1855;50.934;6.958;2023-03-21T12:05:34;10.50;99.90
3678;DHT22;1855;50.934;6.958;2023-03-21T12:08:07;10.50;99.90
3678;DHT22;1855;50.934;6.958;2023-03-21T12:10:41;10.40;99.90
3678;DHT22;1855;50.934;6.958;2023-03-21T12:13:23;10.40;99.90
3678;DHT22;1855;50.934;6.958;2023-03-21T12:15:59;10.40;99.90
3678;DHT22;1855;50.934;6.958;2023-03-21T12:18:43;10.40;99.90
3678;DHT22;1855;50.934;6.958;2023-03-21T12:21:15;10.30;99.90
3678;DHT22;1855;50.934;6.958;2023-03-21T12:23:55;10.30;99.90
3678;DHT22;1855;50.934;6.958;2023-03-21T12:26:25;10.30;99.90
3678;DHT22;1855;50.934;6.958;2023-03-21T12:29:20;10.30;99.90
3678;DHT22;1855;50.934;6.958;2023-03-21T12:31:56;10.30;99.90
3678;DHT22;1855;50.934;6.958;2023-03-21T12:34:44;10.30;99.90
3678;DHT22;1855;50.934;6.958;2023-03-21T12:37:19;10.30;99.90
3678;DHT22;1855;50.934;6.958;2023-03-21T12:39:48;10.30;99.90
3678;DHT22;1855;50.934;6.958;2023-03-21T12:45:15;10.40;99.90
3678;DHT22;1855;50.934;6.958;2023-03-21T12:47:47;10.50;99.90
3678;DHT22;1855;50.934;6.958;2023-03-21T12:50:19;10.50;99.90
3678;DHT22;1855;50.934;6.958;2023-03-21T12:52:51;10.60;99.90
3678;DHT22;1855;50.934;6.958;2023-03-21T12:55:21;10.60;99.90
3678;DHT22;1855;50.934;6.958;2023-03-21T12:57:51;10.70;99.90
3678;DHT22;1855;50.934;6.958;2023-03-21T13:00:22;10.80;99.90
3678;DHT22;1855;50.934;6.958;2023-03-21T13:02:52;10.80;99.90
3678;DHT22;1855;50.934;6.958;2023-03-21T13:05:26;10.90;99.90
3678;DHT22;1855;50.934;6.958;2023-03-21T13:07:58;10.90;99.90
3678;DHT22;1855;50.934;6.958;2023-03-21T13:10:26;11.00;99.90
3678;DHT22;1855;50.934;6.958;2023-03-21T13:13:07;11.00;99.90
3678;DHT22;1855;50.934;6.958;2023-03-21T13:15:59;11.00;99.90
3678;DHT22;1855;50.934;6.958;2023-03-21T13:18:34;11.10;99.90
3678;DHT22;1855;50.934;6.958;2023-03-21T13:21:09;11.10;99.90
3678;DHT22;1855;50.934;6.958;2023-03-21T13:23:38;11.20;99.90
3678;DHT22;1855;50.934;6.958;2023-03-21T13:26:08;11.20;99.90
3678;DHT22;1855;50.934;6.958;2023-03-21T13:28:38;11.30;99.90
3678;DHT22;1855;50.934;6.958;2023-03-21T13:31:17;11.30;99.90
3678;DHT22;1855;50.934;6.958;2023-03-21T13:33:46;11.40;99.90
3678;DHT22;1855;50.934;6.958;2023-03-21T13:36:15;11.50;99.90
3678;DHT22;1855;50.934;6.958;2023-03-21T13:38:49;11.50;99.90
3678;DHT22;1855;50.934;6.958;2023-03-21T13:41:19;11.50;99.90
3678;DHT22;1855;50.934;6.958;2023-03-21T13:43:52;11.60;99.90
3678;DHT22;1855;50.934;6.958;2023-03-21T13:46:42;11.50;99.90
3678;DHT22;1855;50.934;6.958;2023-03-21T13:49:14;11.60;99.90
3678;DHT22;1855;50.934;6.958;2023-03-21T13:51:52;11.60;99.90
3678;DHT22;1855;50.934;6.958;2023-03-21T13:54:22;11.60;99.90
3678;DHT22;1855;50.934;6.958;2023-03-21T13:56:53;11.60;99.90
3678;DHT22;1855;50.934;6.958;2023-03-21T13:59:37;11.60;99.90
3678;DHT22;1855;50.934;6.958;2023-03-21T14:02:21;11.60;99.90
3678;DHT22;1855;50.934;6.958;2023-03-21T14:04:54;11.70;99.90
3678;DHT22;1855;50.934;6.958;2023-03-21T14:07:25;11.80;99.90
3678;DHT22;1855;50.934;6.958;2023-03-21T14:09:54;11.80;99.90
3678;DHT22;1855;50.934;6.958;2023-03-21T14:12:25;11.90;99.90
3678;DHT22;1855;50.934;6.958;2023-03-21T14:14:57;11.90;99.90
3678;DHT22;1855;50.934;6.958;2023-03-21T14:17:28;12.00;99.90
3678;DHT22;1855;50.934;6.958;2023-03-21T14:19:59;12.00;99.90
3678;DHT22;1855;50.934;6.958;2023-03-21T14:22:26;12.10;99.90
3678;DHT22;1855;50.934;6.958;2023-03-21T14:24:55;12.00;99.50
3678;DHT22;1855;50.934;6.958;2023-03-21T14:27:25;12.00;99.90
3678;DHT22;1855;50.934;6.958;2023-03-21T14:29:53;12.00;99.30
3678;DHT22;1855;50.934;6.958;2023-03-21T14:32:22;12.00;99.70
3678;DHT22;1855;50.934;6.958;2023-03-21T14:34:53;12.00;99.60
3678;DHT22;1855;50.934;6.958;2023-03-21T14:37:29;12.00;99.00
3678;DHT22;1855;50.934;6.958;2023-03-21T14:39:57;12.10;99.50
3678;DHT22;1855;50.934;6.958;2023-03-21T14:42:25;12.10;99.90
3678;DHT22;1855;50.934;6.958;2023-03-21T14:44:52;12.30;99.40
3678;DHT22;1855;50.934;6.958;2023-03-21T14:47:23;12.30;98.90
3678;DHT22;1855;50.934;6.958;2023-03-21T14:49:51;12.40;98.10
3678;DHT22;1855;50.934;6.958;2023-03-21T14:52:22;12.40;98.80
3678;DHT22;1855;50.934;6.958;2023-03-21T14:54:49;12.50;98.20
3678;DHT22;1855;50.934;6.958;2023-03-21T14:57:19;12.60;97.90
3678;DHT22;1855;50.934;6.958;2023-03-21T14:59:49;12.60;97.60
3678;DHT22;1855;50.934;6.958;2023-03-21T15:02:18;12.80;97.60
3678;DHT22;1855;50.934;6.958;2023-03-21T15:04:49;13.00;97.10
3678;DHT22;1855;50.934;6.958;2023-03-21T15:07:26;13.20;96.90
3678;DHT22;1855;50.934;6.958;2023-03-21T15:09:56;13.40;95.80
3678;DHT22;1855;50.934;6.958;2023-03-21T15:12:23;13.60;95.40
3678;DHT22;1855;50.934;6.958;2023-03-21T15:14:50;13.80;94.80
3678;DHT22;1855;50.934;6.958;2023-03-21T15:17:17;14.10;94.00
3678;DHT22;1855;50.934;6.958;2023-03-21T15:19:45;14.50;92.70
3678;DHT22;1855;50.934;6.958;2023-03-21T15:22:17;14.60;92.00
3678;DHT22;1855;50.934;6.958;2023-03-21T15:24:50;14.80;91.20
3678;DHT22;1855;50.934;6.958;2023-03-21T15:27:19;15.10;89.90
3678;DHT22;1855;50.934;6.958;2023-03-21T15:29:49;15.70;88.20
3678;DHT22;1855;50.934;6.958;2023-03-21T15:32:20;16.30;84.40
3678;DHT22;1855;50.934;6.958;2023-03-21T15:34:48;16.70;79.70
3678;DHT22;1855;50.934;6.958;2023-03-21T15:37:17;16.30;81.10
3678;DHT22;1855;50.934;6.958;2023-03-21T15:39:48;15.60;84.90
3678;DHT22;1855;50.934;6.958;2023-03-21T15:42:28;15.30;88.30
3678;DHT22;1855;50.934;6.958;2023-03-21T15:44:57;15.40;89.60
3678;DHT22;1855;50.934;6.958;2023-03-21T15:47:38;16.10;87.10
3678;DHT22;1855;50.934;6.958;2023-03-21T15:50:07;17.40;80.30
3678;DHT22;1855;50.934;6.958;2023-03-21T15:52:35;18.80;71.60
3678;DHT22;1855;50.934;6.958;2023-03-21T15:55:19;19.60;65.20
3678;DHT22;1855;50.934;6.958;2023-03-21T15:57:52;19.70;61.20
3678;DHT22;1855;50.934;6.958;2023-03-21T16:00:23;19.70;60.90
3678;DHT22;1855;50.934;6.958;2023-03-21T16:02:55;19.60;61.10
3678;DHT22;1855;50.934;6.958;2023-03-21T16:05:25;18.90;63.20
3678;DHT22;1855;50.934;6.958;2023-03-21T16:07:56;18.10;67.80
3678;DHT22;1855;50.934;6.958;2023-03-21T16:10:30;17.80;70.60
3678;DHT22;1855;50.934;6.958;2023-03-21T16:12:57;17.70;72.70
3678;DHT22;1855;50.934;6.958;2023-03-21T16:15:25;17.70;72.90
3678;DHT22;1855;50.934;6.958;2023-03-21T16:17:54;17.80;71.70
3678;DHT22;1855;50.934;6.958;2023-03-21T16:20:24;18.00;70.00
3678;DHT22;1855;50.934;6.958;2023-03-21T16:22:51;17.70;70.00
3678;DHT22;1855;50.934;6.958;2023-03-21T16:25:18;17.20;72.50
3678;DHT22;1855;50.934;6.958;2023-03-21T16:27:47;16.50;76.60
3678;DHT22;1855;50.934;6.958;2023-03-21T16:30:17;16.00;79.70
3678;DHT22;1855;50.934;6.958;2023-03-21T16:32:44;15.50;83.10
3678;DHT22;1855;50.934;6.958;2023-03-21T16:35:11;15.10;85.60
3678;DHT22;1855;50.934;6.958;2023-03-21T16:37:38;14.70;88.90